createdAt,value
2023-04-03T00:00:17.002Z,3.79
2023-04-03T00:01:16.556Z,3.78
2023-04-03T00:02:16.380Z,3.82
2023-04-03T00:03:17.050Z,3.82
2023-04-03T00:04:16.816Z,3.81
2023-04-03T00:05:16.455Z,3.81
2023-04-03T00:06:17.021Z,3.81
2023-04-03T00:07:16.563Z,3.82
2023-04-03T00:08:17.120Z,3.81
2023-04-03T00:09:16.670Z,3.81
2023-04-03T00:10:17.225Z,3.78
2023-04-03T00:11:16.789Z,3.77
2023-04-03T00:12:17.271Z,3.78
2023-04-03T00:13:16.812Z,3.79
2023-04-03T00:14:16.391Z,3.81
2023-04-03T00:15:16.951Z,3.78
2023-04-03T00:16:16.559Z,3.77
2023-04-03T00:17:17.220Z,3.78
2023-04-03T00:18:16.758Z,3.75
2023-04-03T00:19:16.446Z,3.75
2023-04-03T00:20:17.051Z,3.78
2023-04-03T00:21:16.587Z,3.72
2023-04-03T00:22:16.960Z,3.72
2023-04-03T00:23:16.595Z,3.72
2023-04-03T00:24:17.195Z,3.68
2023-04-03T00:25:16.784Z,3.69
2023-04-03T00:26:16.349Z,3.68
2023-04-03T00:27:16.922Z,3.67
2023-04-03T00:28:16.474Z,3.67
2023-04-03T00:29:17.045Z,3.67
2023-04-03T00:30:16.668Z,3.71
2023-04-03T00:31:17.310Z,3.68
2023-04-03T00:32:17.090Z,3.68
2023-04-03T00:33:16.627Z,3.65
2023-04-03T00:34:17.156Z,3.65
2023-04-03T00:35:16.734Z,3.62
2023-04-03T00:36:17.339Z,3.61
2023-04-03T00:37:17.033Z,3.60
2023-04-03T00:38:16.576Z,3.55
2023-04-03T00:39:17.109Z,3.54
2023-04-03T00:40:16.661Z,3.53
2023-04-03T00:41:17.229Z,3.54
2023-04-03T00:42:16.418Z,3.47
2023-04-03T00:43:16.954Z,3.47
2023-04-03T00:44:16.495Z,3.46
2023-04-03T00:45:17.050Z,3.43
2023-04-03T00:46:16.668Z,3.44
2023-04-03T00:47:16.345Z,3.43
2023-04-03T00:48:16.907Z,3.39
2023-04-03T00:49:16.451Z,3.39
2023-04-03T00:50:17.025Z,3.37
2023-04-03T00:51:16.622Z,3.36
2023-04-03T00:52:17.146Z,3.31
2023-04-03T00:53:16.801Z,3.33
2023-04-03T00:54:16.536Z,3.33
2023-04-03T00:55:17.133Z,3.36
2023-04-03T00:56:16.705Z,3.34
2023-04-03T00:57:17.330Z,3.36
2023-04-03T00:58:17.020Z,3.33
2023-04-03T00:59:16.558Z,3.33
2023-04-03T01:00:17.135Z,3.30
2023-04-03T01:01:16.639Z,3.33
2023-04-03T01:02:17.308Z,3.33
2023-04-03T01:03:16.897Z,3.31
2023-04-03T01:04:16.482Z,3.33
2023-04-03T01:05:17.157Z,3.36
2023-04-03T01:06:16.716Z,3.36
2023-04-03T01:07:17.272Z,3.33
2023-04-03T01:08:16.868Z,3.30
2023-04-03T01:09:16.417Z,3.27
2023-04-03T01:10:17.146Z,3.27
2023-04-03T01:11:16.699Z,3.26
2023-04-03T01:12:16.414Z,3.26
2023-04-03T01:13:16.961Z,3.27
2023-04-03T01:14:16.566Z,3.23
2023-04-03T01:15:17.103Z,3.24
2023-04-03T01:16:16.725Z,3.24
2023-04-03T01:17:16.452Z,3.24
2023-04-03T01:18:17.015Z,3.27
2023-04-03T01:19:16.591Z,3.27
2023-04-03T01:20:17.132Z,3.24
2023-04-03T01:21:16.722Z,3.22
2023-04-03T01:22:16.523Z,3.20
2023-04-03T01:23:17.086Z,3.17
2023-04-03T01:24:16.649Z,3.19
2023-04-03T01:25:17.200Z,3.20
2023-04-03T01:26:16.756Z,3.15
2023-04-03T01:27:17.280Z,3.19
2023-04-03T01:28:16.837Z,3.17
2023-04-03T01:29:16.405Z,3.15
2023-04-03T01:30:16.985Z,3.12
2023-04-03T01:31:16.533Z,3.12
2023-04-03T01:32:17.297Z,3.10
2023-04-03T01:33:16.873Z,3.10
2023-04-03T01:34:16.405Z,3.12
2023-04-03T01:35:16.949Z,3.06
2023-04-03T01:36:16.518Z,3.05
2023-04-03T01:37:17.263Z,3.00
2023-04-03T01:38:16.834Z,3.02
2023-04-03T01:39:16.399Z,2.98
2023-04-03T01:40:16.980Z,2.99
2023-04-03T01:41:16.534Z,2.95
2023-04-03T01:42:16.395Z,2.94
2023-04-03T01:43:16.926Z,2.94
2023-04-03T01:44:16.480Z,2.92
2023-04-03T01:45:17.056Z,2.94
2023-04-03T01:46:16.611Z,2.89
2023-04-03T01:47:17.231Z,2.92
2023-04-03T01:48:16.783Z,2.89
2023-04-03T01:49:16.325Z,2.84
2023-04-03T01:50:16.873Z,2.82
2023-04-03T01:51:16.434Z,2.81
2023-04-03T01:52:16.406Z,2.84
2023-04-03T01:53:16.960Z,2.81
2023-04-03T01:54:16.496Z,2.79
2023-04-03T01:55:17.046Z,2.75
2023-04-03T01:56:16.566Z,2.75
2023-04-03T01:57:17.128Z,2.75
2023-04-03T01:58:16.696Z,2.72
2023-04-03T01:59:17.266Z,2.68
2023-04-03T02:00:16.845Z,2.67
2023-04-03T02:01:16.429Z,2.70
2023-04-03T02:02:16.894Z,2.67
2023-04-03T02:03:16.450Z,2.64
2023-04-03T02:04:17.053Z,2.59
2023-04-03T02:05:16.691Z,2.60
2023-04-03T02:06:17.272Z,2.56
2023-04-03T02:07:16.823Z,2.56
2023-04-03T02:08:16.356Z,2.57
2023-04-03T02:09:16.901Z,2.54
2023-04-03T02:10:16.446Z,2.53
2023-04-03T02:11:17.013Z,2.59
2023-04-03T02:12:16.956Z,2.56
2023-04-03T02:13:16.557Z,2.54
2023-04-03T02:14:17.145Z,2.53
2023-04-03T02:15:16.718Z,2.51
2023-04-03T02:16:17.380Z,2.49
2023-04-03T02:17:17.025Z,2.47
2023-04-03T02:18:16.592Z,2.49
2023-04-03T02:19:17.172Z,2.46
2023-04-03T02:20:16.712Z,2.44
2023-04-03T02:21:17.263Z,2.54
2023-04-03T02:22:16.571Z,2.51
2023-04-03T02:23:17.098Z,2.53
2023-04-03T02:24:16.660Z,2.54
2023-04-03T02:25:17.215Z,2.53
2023-04-03T02:26:16.779Z,2.56
2023-04-03T02:27:17.351Z,2.60
2023-04-03T02:28:16.909Z,2.64
2023-04-03T02:29:16.515Z,2.60
2023-04-03T02:30:17.113Z,2.60
2023-04-03T02:31:16.727Z,2.59
2023-04-03T02:32:16.993Z,2.59
2023-04-03T02:33:16.535Z,2.60
2023-04-03T02:34:17.097Z,2.60
2023-04-03T02:35:16.672Z,2.60
2023-04-03T02:36:17.265Z,2.64
2023-04-03T02:37:16.804Z,2.63
2023-04-03T02:38:16.340Z,2.63
2023-04-03T02:39:16.919Z,2.67
2023-04-03T02:40:16.462Z,2.67
2023-04-03T02:41:17.011Z,2.68
2023-04-03T02:42:16.923Z,2.71
2023-04-03T02:43:16.492Z,2.72
2023-04-03T02:44:17.056Z,2.74
2023-04-03T02:45:16.605Z,2.77
2023-04-03T02:46:17.225Z,2.81
2023-04-03T02:47:16.785Z,2.79
2023-04-03T02:48:16.364Z,2.81
2023-04-03T02:49:16.916Z,2.81
2023-04-03T02:50:16.473Z,2.82
2023-04-03T02:51:17.021Z,2.82
2023-04-03T02:52:16.528Z,2.81
2023-04-03T02:53:17.064Z,2.84
2023-04-03T02:54:16.625Z,2.82
2023-04-03T02:55:17.238Z,2.88
2023-04-03T02:56:16.833Z,2.91
2023-04-03T02:57:16.420Z,2.94
2023-04-03T02:58:17.051Z,2.96
2023-04-03T02:59:16.592Z,2.96
2023-04-03T03:00:17.167Z,2.95
2023-04-03T03:01:16.772Z,2.95
2023-04-03T03:02:16.465Z,2.95
2023-04-03T03:03:17.015Z,2.98
2023-04-03T03:04:16.607Z,2.94
2023-04-03T03:05:17.150Z,2.98
2023-04-03T03:06:16.819Z,2.98
2023-04-03T03:07:16.351Z,2.98
2023-04-03T03:08:16.905Z,2.95
2023-04-03T03:09:16.481Z,2.96
2023-04-03T03:10:17.044Z,2.99
2023-04-03T03:11:16.594Z,2.99
2023-04-03T03:12:16.738Z,3.00
2023-04-03T03:13:16.326Z,3.06
2023-04-03T03:14:16.895Z,3.05
2023-04-03T03:15:16.478Z,3.05
2023-04-03T03:16:17.124Z,2.99
2023-04-03T03:17:16.760Z,2.99
2023-04-03T03:18:17.288Z,3.00
2023-04-03T03:19:16.817Z,2.99
2023-04-03T03:20:16.377Z,2.98
2023-04-03T03:21:16.952Z,2.99
2023-04-03T03:22:16.802Z,2.99
2023-04-03T03:23:16.358Z,2.96
2023-04-03T03:24:16.917Z,2.94
2023-04-03T03:25:16.475Z,2.96
2023-04-03T03:26:17.036Z,2.96
2023-04-03T03:27:16.594Z,2.94
2023-04-03T03:28:17.180Z,2.95
2023-04-03T03:29:16.720Z,2.91
2023-04-03T03:30:17.269Z,2.94
2023-04-03T03:31:16.820Z,2.94
2023-04-03T03:32:16.733Z,2.94
2023-04-03T03:33:17.281Z,2.96
2023-04-03T03:34:16.841Z,2.95
2023-04-03T03:35:16.395Z,2.95
2023-04-03T03:36:16.980Z,2.98
2023-04-03T03:37:16.617Z,2.99
2023-04-03T03:38:17.166Z,2.98
2023-04-03T03:39:16.747Z,2.96
2023-04-03T03:40:17.292Z,2.94
2023-04-03T03:41:16.672Z,2.96
2023-04-03T03:42:16.717Z,2.95
2023-04-03T03:43:17.276Z,2.94
2023-04-03T03:44:16.793Z,2.95
2023-04-03T03:45:16.347Z,2.91
2023-04-03T03:46:16.894Z,2.87
2023-04-03T03:47:16.500Z,2.88
2023-04-03T03:48:17.064Z,2.85
2023-04-03T03:49:16.617Z,2.92
2023-04-03T03:50:17.203Z,2.92
2023-04-03T03:51:16.764Z,2.94
2023-04-03T03:52:16.774Z,2.94
2023-04-03T03:53:16.394Z,2.91
2023-04-03T03:54:16.958Z,2.91
2023-04-03T03:55:16.499Z,2.91
2023-04-03T03:56:17.076Z,2.88
2023-04-03T03:57:16.728Z,2.88
2023-04-03T03:58:16.401Z,2.88
2023-04-03T03:59:16.969Z,2.82
2023-04-03T04:00:16.580Z,2.82
2023-04-03T04:01:17.134Z,2.82
2023-04-03T04:02:17.232Z,2.82
2023-04-03T04:03:16.984Z,2.81
2023-04-03T04:04:16.904Z,2.82
2023-04-03T04:05:16.732Z,2.79
2023-04-03T04:06:17.285Z,2.77
2023-04-03T04:07:16.829Z,2.77
2023-04-03T04:08:16.392Z,2.75
2023-04-03T04:09:16.949Z,2.74
2023-04-03T04:10:16.492Z,2.71
2023-04-03T04:11:17.073Z,2.67
2023-04-03T04:12:16.893Z,2.68
2023-04-03T04:13:16.450Z,2.68
2023-04-03T04:14:16.984Z,2.64
2023-04-03T04:15:16.530Z,2.68
2023-04-03T04:16:17.092Z,2.67
2023-04-03T04:17:16.764Z,2.67
2023-04-03T04:18:17.324Z,2.65
2023-04-03T04:19:16.902Z,2.61
2023-04-03T04:20:16.539Z,2.60
2023-04-03T04:21:17.112Z,2.59
2023-04-03T04:22:16.780Z,2.53
2023-04-03T04:23:16.376Z,2.51
2023-04-03T04:24:16.937Z,2.50
2023-04-03T04:25:16.495Z,2.49
2023-04-03T04:26:17.080Z,2.47
2023-04-03T04:27:16.629Z,2.46
2023-04-03T04:28:17.182Z,2.46
2023-04-03T04:29:16.732Z,2.43
2023-04-03T04:30:17.296Z,2.37
2023-04-03T04:31:16.850Z,2.36
2023-04-03T04:32:16.773Z,2.34
2023-04-03T04:33:16.346Z,2.37
2023-04-03T04:34:16.912Z,2.34
2023-04-03T04:35:17.001Z,2.36
2023-04-03T04:36:16.779Z,2.34
2023-04-03T04:37:16.479Z,2.33
2023-04-03T04:38:17.058Z,2.33
2023-04-03T04:39:16.648Z,2.29
2023-04-03T04:40:17.194Z,2.28
2023-04-03T04:41:16.715Z,2.26
2023-04-03T04:42:17.907Z,2.23
2023-04-03T04:43:16.499Z,2.25
2023-04-03T04:44:17.140Z,2.22
2023-04-03T04:45:16.728Z,2.28
2023-04-03T04:46:17.342Z,2.23
2023-04-03T04:47:17.010Z,2.23
2023-04-03T04:48:16.580Z,2.19
2023-04-03T04:49:17.133Z,2.16
2023-04-03T04:50:16.719Z,2.12
2023-04-03T04:51:17.302Z,2.13
2023-04-03T04:52:17.061Z,2.06
2023-04-03T04:53:16.588Z,2.05
2023-04-03T04:54:17.132Z,2.05
2023-04-03T04:55:16.748Z,2.08
2023-04-03T04:56:17.320Z,2.05
2023-04-03T04:57:16.926Z,2.04
2023-04-03T04:58:16.633Z,2.06
2023-04-03T04:59:17.193Z,2.05
2023-04-03T05:00:16.838Z,2.02
2023-04-03T05:01:16.377Z,1.98
2023-04-03T05:02:17.169Z,1.97
2023-04-03T05:03:16.733Z,1.95
2023-04-03T05:04:17.292Z,1.95
2023-04-03T05:05:17.012Z,1.91
2023-04-03T05:06:16.675Z,1.87
2023-04-03T05:07:17.207Z,1.89
2023-04-03T05:08:16.780Z,1.89
2023-04-03T05:09:17.326Z,1.91
2023-04-03T05:10:16.864Z,1.88
2023-04-03T05:11:16.414Z,1.89
2023-04-03T05:12:17.033Z,1.89
2023-04-03T05:13:16.610Z,1.91
2023-04-03T05:14:17.173Z,1.88
2023-04-03T05:15:16.714Z,1.84
2023-04-03T05:16:17.326Z,1.84
2023-04-03T05:17:16.956Z,1.84
2023-04-03T05:18:16.541Z,1.82
2023-04-03T05:19:17.099Z,1.82
2023-04-03T05:20:16.660Z,1.85
2023-04-03T05:21:17.207Z,1.85
2023-04-03T05:22:16.742Z,1.87
2023-04-03T05:23:17.304Z,1.87
2023-04-03T05:24:16.884Z,1.87
2023-04-03T05:25:16.441Z,1.85
2023-04-03T05:26:16.993Z,1.89
2023-04-03T05:27:16.551Z,1.89
2023-04-03T05:28:17.106Z,1.91
2023-04-03T05:29:16.724Z,1.92
2023-04-03T05:30:17.297Z,1.92
2023-04-03T05:31:16.848Z,1.89
2023-04-03T05:32:16.676Z,1.85
2023-04-03T05:33:17.276Z,1.91
2023-04-03T05:34:16.820Z,1.95
2023-04-03T05:35:16.352Z,2.04
2023-04-03T05:36:17.223Z,2.02
2023-04-03T05:37:17.228Z,2.04
2023-04-03T05:38:17.064Z,2.04
2023-04-03T05:39:16.880Z,2.06
2023-04-03T05:40:18.557Z,2.08
2023-04-03T05:41:17.279Z,2.08
2023-04-03T05:42:16.564Z,2.08
2023-04-03T05:43:17.129Z,2.12
2023-04-03T05:44:16.717Z,2.16
2023-04-03T05:45:17.258Z,2.19
2023-04-03T05:46:16.844Z,2.25
2023-04-03T05:47:16.520Z,2.25
2023-04-03T05:48:17.058Z,2.23
2023-04-03T05:49:16.623Z,2.25
2023-04-03T05:50:17.176Z,2.25
2023-04-03T05:51:16.745Z,2.23
2023-04-03T05:52:16.518Z,2.30
2023-04-03T05:53:17.098Z,2.33
2023-04-03T05:54:16.639Z,2.37
2023-04-03T05:55:16.560Z,2.39
2023-04-03T05:56:17.141Z,2.42
2023-04-03T05:57:16.706Z,2.44
2023-04-03T05:58:16.369Z,2.40
2023-04-03T05:59:16.932Z,2.47
2023-04-03T06:00:16.465Z,2.57
2023-04-03T06:01:17.115Z,2.59
2023-04-03T06:02:16.846Z,2.63
2023-04-03T06:03:16.482Z,2.63
2023-04-03T06:04:17.341Z,2.63
2023-04-03T06:05:17.070Z,2.63
2023-04-03T06:06:16.664Z,2.63
2023-04-03T06:07:17.287Z,2.64
2023-04-03T06:08:16.863Z,2.65
2023-04-03T06:09:16.419Z,2.71
2023-04-03T06:10:16.984Z,2.74
2023-04-03T06:11:16.528Z,2.79
2023-04-03T06:12:16.401Z,2.84
2023-04-03T06:13:16.976Z,2.91
2023-04-03T06:14:16.546Z,3.03
2023-04-03T06:15:17.094Z,3.07
2023-04-03T06:16:16.700Z,3.15
2023-04-03T06:17:17.424Z,3.20
2023-04-03T06:18:17.177Z,3.20
2023-04-03T06:19:16.732Z,3.15
2023-04-03T06:20:17.308Z,3.17
2023-04-03T06:21:16.888Z,3.19
2023-04-03T06:22:16.752Z,3.28
2023-04-03T06:23:16.309Z,3.26
2023-04-03T06:24:16.869Z,2.98
2023-04-03T06:25:16.432Z,3.05
2023-04-03T06:26:16.996Z,3.13
2023-04-03T06:27:16.613Z,3.26
2023-04-03T06:28:17.185Z,3.24
2023-04-03T06:29:16.723Z,3.36
2023-04-03T06:30:17.329Z,3.50
2023-04-03T06:31:17.007Z,3.47
2023-04-03T06:32:16.801Z,3.54
2023-04-03T06:33:16.362Z,3.50
2023-04-03T06:34:16.999Z,3.36
2023-04-03T06:35:16.567Z,3.43
2023-04-03T06:36:17.116Z,3.47
2023-04-03T06:37:16.704Z,3.43
2023-04-03T06:38:17.238Z,3.30
2023-04-03T06:39:16.791Z,3.30
2023-04-03T06:40:16.349Z,3.12
2023-04-03T06:41:16.903Z,3.19
2023-04-03T06:42:17.085Z,3.36
2023-04-03T06:43:16.647Z,3.44
2023-04-03T06:44:17.201Z,3.46
2023-04-03T06:45:16.762Z,3.27
2023-04-03T06:46:17.365Z,3.33
2023-04-03T06:47:17.074Z,3.27
2023-04-03T06:48:16.641Z,3.22
2023-04-03T06:49:17.236Z,3.26
2023-04-03T06:50:16.820Z,3.17
2023-04-03T06:51:16.384Z,3.20
2023-04-03T06:52:16.954Z,3.20
2023-04-03T06:53:16.541Z,3.34
2023-04-03T06:54:17.100Z,3.31
2023-04-03T06:55:16.668Z,3.34
2023-04-03T06:56:17.247Z,3.43
2023-04-03T06:57:16.807Z,3.53
2023-04-03T06:58:16.462Z,3.54
2023-04-03T06:59:17.006Z,3.67
2023-04-03T07:00:16.621Z,3.61
2023-04-03T07:01:17.205Z,3.62
2023-04-03T07:02:16.645Z,3.72
2023-04-03T07:03:17.187Z,3.57
2023-04-03T07:04:16.818Z,3.40
2023-04-03T07:05:16.467Z,3.50
2023-04-03T07:06:17.014Z,3.71
2023-04-03T07:07:16.583Z,3.65
2023-04-03T07:08:17.139Z,3.51
2023-04-03T07:09:16.674Z,3.62
2023-04-03T07:10:17.256Z,3.75
2023-04-03T07:11:16.841Z,3.61
2023-04-03T07:12:16.535Z,3.68
2023-04-03T07:13:17.086Z,3.65
2023-04-03T07:14:16.690Z,3.55
2023-04-03T07:15:17.232Z,3.64
2023-04-03T07:16:16.857Z,3.77
2023-04-03T07:17:16.504Z,3.92
2023-04-03T07:18:17.084Z,3.86
2023-04-03T07:19:16.612Z,3.92
2023-04-03T07:20:17.181Z,3.86
2023-04-03T07:21:16.762Z,3.89
2023-04-03T07:22:16.708Z,4.03
2023-04-03T07:23:17.329Z,3.99
2023-04-03T07:24:17.013Z,4.13
2023-04-03T07:25:16.622Z,4.27
2023-04-03T07:26:17.264Z,4.38
2023-04-03T07:27:16.824Z,4.45
2023-04-03T07:28:16.386Z,4.75
2023-04-03T07:29:16.945Z,4.83
2023-04-03T07:30:16.530Z,4.86
2023-04-03T07:31:17.143Z,4.75
2023-04-03T07:32:17.174Z,4.61
2023-04-03T07:33:16.745Z,4.75
2023-04-03T07:34:17.321Z,4.78
2023-04-03T07:35:16.874Z,4.87
2023-04-03T07:36:16.442Z,5.03
2023-04-03T07:37:17.029Z,5.18
2023-04-03T07:38:16.616Z,5.28
2023-04-03T07:39:17.207Z,5.35
2023-04-03T07:40:17.039Z,5.39
2023-04-03T07:41:16.958Z,5.45
2023-04-03T07:42:17.260Z,5.08
2023-04-03T07:43:16.890Z,5.06
2023-04-03T07:44:16.447Z,5.15
2023-04-03T07:45:17.007Z,5.18
2023-04-03T07:46:16.610Z,4.95
2023-04-03T07:47:17.263Z,4.87
2023-04-03T07:48:16.823Z,4.87
2023-04-03T07:49:16.383Z,5.17
2023-04-03T07:50:16.948Z,4.90
2023-04-03T07:51:16.521Z,4.95
2023-04-03T07:52:16.391Z,4.83
2023-04-03T07:53:16.981Z,5.18
2023-04-03T07:54:16.552Z,5.14
2023-04-03T07:55:17.113Z,4.80
2023-04-03T07:56:16.657Z,5.00
2023-04-03T07:57:17.274Z,4.85
2023-04-03T07:58:16.970Z,4.83
2023-04-03T07:59:16.544Z,5.04
2023-04-03T08:00:17.076Z,5.14
2023-04-03T08:01:16.658Z,5.31
2023-04-03T08:02:16.648Z,5.61
2023-04-03T08:03:17.311Z,5.62
2023-04-03T08:04:17.437Z,5.62
2023-04-03T08:05:17.093Z,5.31
2023-04-03T08:06:18.660Z,5.20
2023-04-03T08:07:16.482Z,5.06
2023-04-03T08:08:17.707Z,4.78
2023-04-03T08:09:17.235Z,5.03
2023-04-03T08:10:16.782Z,5.08
2023-04-03T08:11:16.352Z,4.80
2023-04-03T08:12:16.320Z,4.79
2023-04-03T08:13:16.832Z,5.06
2023-04-03T08:14:16.365Z,5.63
2023-04-03T08:15:16.961Z,5.90
2023-04-03T08:16:16.533Z,6.83
2023-04-03T08:17:16.427Z,6.83
2023-04-03T08:18:17.016Z,6.70
2023-04-03T08:19:25.197Z,7.71
2023-04-03T08:20:16.423Z,7.97
2023-04-03T08:21:16.985Z,7.84
2023-04-03T08:22:17.052Z,7.38
2023-04-03T08:23:18.116Z,7.05
2023-04-03T08:24:16.644Z,7.05
2023-04-03T08:25:17.179Z,7.25
2023-04-03T08:26:16.720Z,7.42
2023-04-03T08:27:17.268Z,7.11
2023-04-03T08:28:16.814Z,6.94
2023-04-03T08:29:16.379Z,7.15
2023-04-03T08:30:16.929Z,7.78
2023-04-03T08:31:16.577Z,8.23
2023-04-03T08:32:16.902Z,8.90
2023-04-03T08:33:16.472Z,8.79
2023-04-03T08:34:17.067Z,8.96
2023-04-03T08:35:16.641Z,8.58
2023-04-03T08:36:17.231Z,9.37
2023-04-03T08:37:16.968Z,8.47
2023-04-03T08:38:16.513Z,8.36
2023-04-03T08:39:17.082Z,9.65
2023-04-03T08:40:16.640Z,9.85
2023-04-03T08:41:17.185Z,10.16
2023-04-03T08:42:16.809Z,10.85
2023-04-03T08:43:16.396Z,10.98
2023-04-03T08:44:16.946Z,10.96
2023-04-03T08:45:16.539Z,10.60
2023-04-03T08:46:17.129Z,8.85
2023-04-03T08:47:16.769Z,9.13
2023-04-03T08:48:16.428Z,9.26
2023-04-03T08:49:17.186Z,8.87
2023-04-03T08:50:16.826Z,8.54
2023-04-03T08:51:16.412Z,8.43
2023-04-03T08:52:17.138Z,7.61
2023-04-03T08:53:16.666Z,7.57
2023-04-03T08:54:17.212Z,7.78
2023-04-03T08:55:16.770Z,7.49
2023-04-03T08:56:16.324Z,7.57
2023-04-03T08:57:16.932Z,7.98
2023-04-03T08:58:16.595Z,7.92
2023-04-03T08:59:17.168Z,7.15
2023-04-03T09:00:16.726Z,6.73
2023-04-03T09:01:17.330Z,6.20
2023-04-03T09:02:16.925Z,6.31
2023-04-03T09:03:16.528Z,6.10
2023-04-03T09:04:17.378Z,5.98
2023-04-03T09:05:17.092Z,6.55
2023-04-03T09:06:16.639Z,7.25
2023-04-03T09:07:17.188Z,7.33
2023-04-03T09:08:16.730Z,7.51
2023-04-03T09:09:17.284Z,7.38
2023-04-03T09:10:16.847Z,7.11
2023-04-03T09:11:16.414Z,6.97
2023-04-03T09:12:16.563Z,7.01
2023-04-03T09:13:17.113Z,6.97
2023-04-03T09:14:16.676Z,6.97
2023-04-03T09:15:19.995Z,6.70
2023-04-03T09:16:16.627Z,7.16
2023-04-03T09:17:17.231Z,7.16
2023-04-03T09:18:16.790Z,7.56
2023-04-03T09:19:16.444Z,7.67
2023-04-03T09:20:18.948Z,7.21
2023-04-03T09:21:16.440Z,6.61
2023-04-03T09:22:16.938Z,6.69
2023-04-03T09:23:16.535Z,6.94
2023-04-03T09:24:17.119Z,7.08
2023-04-03T09:25:16.701Z,7.11
2023-04-03T09:26:17.269Z,7.00
2023-04-03T09:27:16.898Z,6.79
2023-04-03T09:28:16.529Z,6.72
2023-04-03T09:29:17.094Z,6.80
2023-04-03T09:30:16.636Z,6.72
2023-04-03T09:31:17.209Z,6.56
2023-04-03T09:32:16.802Z,6.39
2023-04-03T09:33:16.381Z,6.35
2023-04-03T09:34:17.046Z,6.24
2023-04-03T09:35:20.488Z,6.08
2023-04-03T09:36:17.276Z,7.10
2023-04-03T09:37:16.874Z,7.43
2023-04-03T09:38:16.416Z,7.46
2023-04-03T09:39:16.946Z,7.45
2023-04-03T09:40:16.607Z,7.36
2023-04-03T09:41:17.275Z,6.63
2023-04-03T09:42:16.942Z,7.60
2023-04-03T09:43:16.501Z,7.54
2023-04-03T09:44:17.064Z,7.53
2023-04-03T09:45:16.617Z,7.33
2023-04-03T09:46:17.558Z,7.28
2023-04-03T09:47:17.040Z,7.28
2023-04-03T09:48:16.933Z,7.94
2023-04-03T09:49:16.666Z,8.92
2023-04-03T09:50:17.194Z,9.47
2023-04-03T09:51:16.754Z,9.89
2023-04-03T09:52:16.853Z,9.16
2023-04-03T09:53:16.390Z,8.98
2023-04-03T09:54:16.925Z,8.74
2023-04-03T09:55:16.511Z,7.95
2023-04-03T09:56:17.081Z,8.32
2023-04-03T09:57:16.675Z,8.61
2023-04-03T09:58:17.315Z,8.08
2023-04-03T09:59:16.859Z,7.68
2023-04-03T10:00:16.419Z,7.87
2023-04-03T10:01:17.063Z,7.66
2023-04-03T10:02:16.620Z,8.26
2023-04-03T10:03:17.165Z,8.02
2023-04-03T10:04:16.747Z,8.48
2023-04-03T10:05:16.479Z,8.19
2023-04-03T10:06:17.166Z,8.05
2023-04-03T10:07:16.742Z,7.73
2023-04-03T10:08:17.305Z,7.02
2023-04-03T10:09:16.895Z,7.38
2023-04-03T10:10:16.492Z,7.74
2023-04-03T10:11:17.112Z,7.91
2023-04-03T10:12:17.112Z,7.94
2023-04-03T10:13:20.898Z,8.05
2023-04-03T10:14:16.320Z,8.81
2023-04-03T10:15:16.909Z,8.78
2023-04-03T10:16:16.497Z,8.57
2023-04-03T10:17:17.132Z,8.79
2023-04-03T10:18:24.199Z,8.69
2023-04-03T10:19:16.550Z,8.64
2023-04-03T10:20:17.115Z,8.46
2023-04-03T10:21:24.929Z,8.54
2023-04-03T10:22:16.333Z,8.68
2023-04-03T10:23:16.916Z,8.54
2023-04-03T10:24:16.456Z,8.30
2023-04-03T10:25:17.005Z,8.85
2023-04-03T10:26:16.556Z,9.10
2023-04-03T10:27:17.114Z,8.51
2023-04-03T10:28:16.644Z,8.50
2023-04-03T10:29:17.219Z,8.54
2023-04-03T10:30:16.771Z,8.29
2023-04-03T10:31:16.348Z,7.95
2023-04-03T10:32:17.109Z,7.91
2023-04-03T10:33:16.851Z,7.91
2023-04-03T10:34:16.454Z,8.43
2023-04-03T10:35:17.013Z,8.60
2023-04-03T10:36:16.569Z,8.33
2023-04-03T10:37:17.131Z,7.38
2023-04-03T10:38:16.689Z,7.56
2023-04-03T10:39:17.260Z,7.56
2023-04-03T10:40:16.890Z,7.61
2023-04-03T10:41:17.637Z,7.73
2023-04-03T10:42:17.977Z,8.39
2023-04-03T10:43:16.738Z,8.88
2023-04-03T10:44:17.269Z,9.50
2023-04-03T10:45:16.818Z,10.06
2023-04-03T10:46:16.384Z,9.80
2023-04-03T10:47:17.033Z,9.43
2023-04-03T10:48:16.636Z,10.34
2023-04-03T10:49:17.305Z,10.00
2023-04-03T10:50:16.914Z,10.55
2023-04-03T10:51:16.461Z,9.84
2023-04-03T10:52:16.349Z,9.71
2023-04-03T10:53:16.899Z,9.18
2023-04-03T10:54:16.471Z,8.56
2023-04-03T10:55:17.055Z,7.95
2023-04-03T10:56:16.603Z,7.73
2023-04-03T10:57:17.168Z,7.70
2023-04-03T10:58:16.803Z,7.74
2023-04-03T10:59:16.413Z,7.80
2023-04-03T11:00:17.001Z,7.67
2023-04-03T11:01:16.570Z,8.36
2023-04-03T11:02:17.069Z,8.33
2023-04-03T11:03:16.707Z,8.37
2023-04-03T11:04:16.392Z,8.67
2023-04-03T11:05:16.948Z,8.79
2023-04-03T11:06:16.469Z,8.26
2023-04-03T11:07:17.007Z,8.35
2023-04-03T11:08:16.582Z,8.75
2023-04-03T11:09:17.210Z,8.96
2023-04-03T11:10:16.864Z,9.53
2023-04-03T11:11:16.478Z,10.19
2023-04-03T11:12:17.239Z,10.37
2023-04-03T11:13:16.816Z,10.61
2023-04-03T11:14:16.433Z,11.02
2023-04-03T11:15:16.991Z,11.34
2023-04-03T11:16:16.563Z,11.20
2023-04-03T11:17:17.198Z,11.99
2023-04-03T11:18:16.749Z,10.96
2023-04-03T11:19:16.304Z,11.30
2023-04-03T11:20:16.877Z,11.51
2023-04-03T11:21:16.443Z,11.03
2023-04-03T11:22:17.177Z,10.95
2023-04-03T11:23:16.743Z,10.81
2023-04-03T11:24:17.285Z,10.41
2023-04-03T11:25:16.856Z,10.55
2023-04-03T11:26:16.424Z,10.49
2023-04-03T11:27:16.995Z,9.53
2023-04-03T11:28:16.607Z,9.76
2023-04-03T11:29:24.940Z,9.38
2023-04-03T11:30:17.141Z,8.60
2023-04-03T11:31:16.716Z,9.66
2023-04-03T11:32:16.738Z,9.66
2023-04-03T11:33:17.264Z,10.10
2023-04-03T11:34:16.824Z,10.83
2023-04-03T11:35:16.417Z,11.24
2023-04-03T11:36:25.383Z,10.49
2023-04-03T11:37:16.584Z,9.15
2023-04-03T11:38:17.163Z,9.20
2023-04-03T11:39:16.708Z,8.23
2023-04-03T11:40:17.267Z,7.51
2023-04-03T11:41:16.861Z,7.74
2023-04-03T11:42:17.028Z,7.78
2023-04-03T11:43:16.666Z,7.88
2023-04-03T11:44:17.213Z,8.23
2023-04-03T11:45:16.756Z,7.98
2023-04-03T11:46:17.366Z,8.05
2023-04-03T11:47:17.100Z,8.81
2023-04-03T11:48:24.417Z,9.10
2023-04-03T11:49:16.781Z,8.96
2023-04-03T11:50:16.379Z,8.74
2023-04-03T11:51:16.995Z,8.53
2023-04-03T11:52:16.521Z,8.35
2023-04-03T11:53:17.075Z,7.77
2023-04-03T11:54:16.641Z,7.49
2023-04-03T11:55:17.226Z,7.26
2023-04-03T11:56:16.795Z,7.40
2023-04-03T11:57:16.345Z,7.64
2023-04-03T11:58:17.005Z,7.76
2023-04-03T11:59:16.548Z,7.81
2023-04-03T12:00:17.120Z,7.88
2023-04-03T12:01:16.676Z,8.00
2023-04-03T12:02:16.731Z,8.00
2023-04-03T12:03:16.477Z,7.73
2023-04-03T12:04:17.209Z,7.77
2023-04-03T12:05:16.990Z,7.38
2023-04-03T12:06:16.552Z,7.49
2023-04-03T12:07:17.131Z,7.70
2023-04-03T12:08:16.692Z,7.73
2023-04-03T12:09:17.253Z,7.76
2023-04-03T12:10:25.178Z,7.67
2023-04-03T12:11:17.172Z,7.67
2023-04-03T12:12:17.152Z,7.26
2023-04-03T12:13:16.710Z,7.12
2023-04-03T12:14:17.270Z,7.10
2023-04-03T12:15:16.816Z,7.07
2023-04-03T12:16:16.390Z,6.72
2023-04-03T12:17:17.009Z,6.87
2023-04-03T12:18:16.558Z,7.04
2023-04-03T12:19:17.191Z,7.19
2023-04-03T12:20:16.820Z,7.15
2023-04-03T12:21:16.378Z,7.08
2023-04-03T12:22:16.380Z,7.14
2023-04-03T12:23:16.956Z,6.91
2023-04-03T12:24:16.489Z,7.07
2023-04-03T12:25:17.044Z,7.21
2023-04-03T12:26:16.618Z,7.47
2023-04-03T12:27:17.213Z,7.57
2023-04-03T12:28:16.826Z,7.50
2023-04-03T12:29:16.387Z,7.35
2023-04-03T12:30:16.986Z,7.00
2023-04-03T12:31:16.646Z,6.87
2023-04-03T12:32:16.747Z,6.72
2023-04-03T12:33:17.334Z,6.88
2023-04-03T12:34:16.963Z,6.83
2023-04-03T12:35:16.609Z,6.74
2023-04-03T12:36:17.265Z,6.82
2023-04-03T12:37:16.871Z,6.97
2023-04-03T12:38:16.476Z,7.01
2023-04-03T12:39:17.113Z,6.76
2023-04-03T12:40:16.658Z,7.05
2023-04-03T12:41:17.197Z,7.21
2023-04-03T12:42:16.629Z,7.39
2023-04-03T12:43:17.193Z,7.56
2023-04-03T12:44:16.750Z,7.63
2023-04-03T12:45:17.318Z,7.66
2023-04-03T12:46:17.148Z,7.61
2023-04-03T12:47:17.118Z,7.05
2023-04-03T12:48:16.729Z,6.59
2023-04-03T12:49:17.322Z,6.69
2023-04-03T12:50:17.125Z,6.70
2023-04-03T12:51:16.669Z,6.59
2023-04-03T12:52:16.872Z,6.55
2023-04-03T12:53:16.428Z,6.45
2023-04-03T12:54:17.016Z,6.36
2023-04-03T12:55:16.557Z,6.12
2023-04-03T12:56:17.108Z,6.18
2023-04-03T12:57:16.704Z,6.28
2023-04-03T12:58:16.388Z,6.48
2023-04-03T12:59:16.931Z,6.80
2023-04-03T13:00:16.478Z,6.84
2023-04-03T13:01:17.043Z,6.72
2023-04-03T13:02:16.912Z,6.52
2023-04-03T13:03:16.635Z,6.66
2023-04-03T13:04:17.314Z,6.76
2023-04-03T13:05:16.848Z,6.93
2023-04-03T13:06:16.409Z,7.19
2023-04-03T13:07:16.945Z,7.07
2023-04-03T13:08:16.494Z,6.94
2023-04-03T13:09:17.070Z,6.83
2023-04-03T13:10:16.632Z,6.88
2023-04-03T13:11:17.201Z,6.98
2023-04-03T13:12:16.413Z,7.16
2023-04-03T13:13:16.970Z,6.82
2023-04-03T13:14:16.528Z,6.61
2023-04-03T13:15:17.102Z,6.69
2023-04-03T13:16:16.722Z,6.50
2023-04-03T13:17:16.335Z,6.56